Time;durP1;ratioP1;P1;durP2;ratioP2;P2;SDS_P1;SDS_P2;PMS_P1;PMS_P2;Temp;Humidity;BMP_temperature;BMP_pressure;BME280_temperature;BME280_humidity;BME280_pressure;Samples;Min_cycle;Max_cycle;Signal;HPM_P1;HPM_P2
2023/01/11 00:01:57;;;;;;;;;;;;;;;;;;4987236;28;3383;-54
2023/01/11 00:04:28;;;;;;;;;;;;;;;;;;4981808;28;4445;-56
2023/01/11 00:06:54;;;;;;;;;;;;;;;;;;4987873;28;5127;-54
2023/01/11 00:09:19;;;;;;;;;;;;;;;;;;4986885;28;5725;-54
2023/01/11 00:11:44;;;;;;;;;;;;;;;;;;4986915;28;5075;-63
2023/01/11 00:14:09;;;;;;;;;;;;;;;;;;4987566;28;3223;-55
2023/01/11 00:16:35;;;;;;;;;;;;;;;;;;4987811;28;5063;-55
2023/01/11 00:19:00;;;;;;;;;;;;;;;;;;4984485;28;5093;-57
2023/01/11 00:21:25;;;;;;;;;;;;;;;;;;4992025;28;5174;-54
2023/01/11 00:23:51;;;;;;;;;;;;;;;;;;4986807;28;5109;-54
2023/01/11 00:26:16;;;;;;;;;;;;;;;;;;4984036;28;3247;-57
2023/01/11 00:28:41;;;;;;;;;;;;;;;;;;4984871;28;5201;-56
2023/01/11 00:31:07;;;;;;;;;;;;;;;;;;4983082;28;4497;-58
2023/01/11 00:33:32;;;;;;;;;;;;;;;;;;4985037;28;5012;-53
2023/01/11 00:35:57;;;;;;;;;;;;;;;;;;4981350;28;5215;-56
2023/01/11 00:49:18;;;;;;;;;;;;;;;;;;4992767;28;4550;-52
2023/01/11 00:51:43;;;;;;;;;;;;;;;;;;4987721;28;4890;-55
2023/01/11 00:54:08;;;;;;;;;;;;;;;;;;4987864;28;4531;-53
2023/01/11 00:56:34;;;;;;;;;;;;;;;;;;4984746;28;5171;-52
2023/01/11 00:59:00;;;;;;;;;;;;;;;;;;4988574;28;3239;-51
2023/01/11 01:01:25;;;;;;;;;;;;;;;;;;4984344;28;4610;-52
2023/01/11 01:03:51;;;;;;;;;;;;;;;;;;4986886;28;5422;-51
2023/01/11 01:06:16;;;;;;;;;;;;;;;;;;4979765;28;5133;-50
2023/01/11 01:08:41;;;;;;;;;;;;;;;;;;4981564;28;5027;-52
2023/01/11 01:11:07;;;;;;;;;;;;;;;;;;4988940;28;1496;-53
2023/01/11 01:16:31;;;;;;;;;;;;;;;;;;4963735;28;5084;-53
2023/01/11 01:18:56;;;;;;;;;;;;;;;;;;4989702;28;5046;-54
2023/01/11 01:21:22;;;;;;;;;;;;;;;;;;4985065;28;5184;-60
2023/01/11 01:23:47;;;;;;;;;;;;;;;;;;4986884;28;5089;-52
2023/01/11 01:26:12;;;;;;;;;;;;;;;;;;4986020;28;3345;-52
2023/01/11 01:28:37;;;;;;;;;;;;;;;;;;4978321;28;5201;-54
2023/01/11 01:31:03;;;;;;;;;;;;;;;;;;4986345;28;4653;-52
2023/01/11 01:33:28;;;;;;;;;;;;;;;;;;4986353;28;4720;-52
2023/01/11 01:35:53;;;;;;;;;;;;;;;;;;4981803;28;4545;-51
2023/01/11 01:38:18;;;;;;;;;;;;;;;;;;4987499;28;3344;-58
2023/01/11 01:40:44;;;;;;;;;;;;;;;;;;5001230;28;4813;-53
2023/01/11 01:43:10;;;;;;;;;;;;;;;;;;4987887;28;4489;-51
2023/01/11 01:45:35;;;;;;;;;;;;;;;;;;4984324;28;5032;-52
2023/01/11 01:48:01;;;;;;;;;;;;;;;;;;4985544;28;6003;-54
2023/01/11 01:50:27;;;;;;;;;;;;;;;;;;4987284;28;5114;-52
2023/01/11 01:52:53;;;;;;;;;;;;;;;;;;4989474;28;3227;-52
2023/01/11 01:55:24;;;;;;;;;;;;;;;;;;4987305;28;4693;-57
2023/01/11 01:57:49;;;;;;;;;;;;;;;;;;4987270;28;4592;-59
2023/01/11 02:00:14;;;;;;;;;;;;;;;;;;4987701;28;5283;-53
2023/01/11 02:02:40;;;;;;;;;;;;;;;;;;4990177;28;4671;-53
2023/01/11 02:05:05;;;;;;;;;;;;;;;;;;4986836;28;3450;-55
2023/01/11 02:07:32;;;;;;;;;;;;;;;;;;4987946;28;4796;-53
2023/01/11 02:09:57;;;;;;;;;;;;;;;;;;4988764;28;5191;-57
2023/01/11 02:12:23;;;;;;;;;;;;;;;;;;4985555;28;4603;-56
2023/01/11 02:14:49;;;;;;;;;;;;;;;;;;4988387;28;5037;-53
2023/01/11 02:17:14;;;;;;;;;;;;;;;;;;4989909;28;3334;-52
2023/01/11 02:19:48;;;;;;;;;;;;;;;;;;4989562;28;5248;-54
2023/01/11 02:22:13;;;;;;;;;;;;;;;;;;4988176;28;5062;-51
2023/01/11 02:25:08;;;;;;;;;;;;;;;;;;4982706;28;5095;-56
2023/01/11 02:27:52;;;;;;;;;;;;;;;;;;4985559;28;5062;-52
2023/01/11 02:30:35;;;;;;;;;;;;;;;;;;4986614;28;5152;-55
2023/01/11 02:33:00;;;;;;;;;;;;;;;;;;4988819;28;5175;-54
2023/01/11 02:35:41;;;;;;;;;;;;;;;;;;4986368;28;4933;-56
2023/01/11 02:38:09;;;;;;;;;;;;;;;;;;4989236;28;3251;-57
2023/01/11 02:40:47;;;;;;;;;;;;;;;;;;4990016;28;4442;-52
2023/01/11 02:46:02;;;;;;;;;;;;;;;;;;4978215;28;4914;-57
2023/01/11 02:48:33;;;;;;;;;;;;;;;;;;4982662;28;5062;-55
2023/01/11 02:51:03;;;;;;;;;;;;;;;;;;4988097;28;4512;-54
2023/01/11 02:53:35;;;;;;;;;;;;;;;;;;4988854;28;5215;-56
2023/01/11 02:56:00;;;;;;;;;;;;;;;;;;4984494;28;3315;-53
2023/01/11 02:58:30;;;;;;;;;;;;;;;;;;4987015;28;5138;-55
2023/01/11 03:00:57;;;;;;;;;;;;;;;;;;4988746;28;4928;-50
2023/01/11 03:03:23;;;;;;;;;;;;;;;;;;4988092;28;4886;-54
2023/01/11 03:05:52;;;;;;;;;;;;;;;;;;4984290;28;5692;-55
2023/01/11 03:08:28;;;;;;;;;;;;;;;;;;4998428;28;3399;-55
2023/01/11 03:10:56;;;;;;;;;;;;;;;;;;4988176;28;4865;-56
2023/01/11 03:13:24;;;;;;;;;;;;;;;;;;4983247;28;4995;-62
2023/01/11 03:15:55;;;;;;;;;;;;;;;;;;4988487;28;5050;-56
2023/01/11 03:18:25;;;;;;;;;;;;;;;;;;4987551;28;5115;-54
2023/01/11 03:21:09;;;;;;;;;;;;;;;;;;4988068;28;5287;-51
2023/01/11 03:23:44;;;;;;;;;;;;;;;;;;4989409;28;5056;-57
2023/01/11 03:26:12;;;;;;;;;;;;;;;;;;4986410;28;2250;-54
2023/01/11 03:28:37;;;;;;;;;;;;;;;;;;4989200;28;5068;-54
2023/01/11 03:31:13;;;;;;;;;;;;;;;;;;4988105;28;4999;-54
2023/01/11 03:34:01;;;;;;;;;;;;;;;;;;4985877;28;4477;-53
2023/01/11 03:36:29;;;;;;;;;;;;;;;;;;4976368;28;4935;-59
2023/01/11 03:39:13;;;;;;;;;;;;;;;;;;4987232;28;5111;-54
2023/01/11 03:41:38;;;;;;;;;;;;;;;;;;4987492;28;5224;-53
2023/01/11 03:44:04;;;;;;;;;;;;;;;;;;4986307;28;3404;-56
2023/01/11 03:46:37;;;;;;;;;;;;;;;;;;4985784;28;5091;-57
2023/01/11 03:49:02;;;;;;;;;;;;;;;;;;4977334;28;5178;-54
2023/01/11 03:51:28;;;;;;;;;;;;;;;;;;4987811;28;4978;-53
2023/01/11 03:53:58;;;;;;;;;;;;;;;;;;4986225;28;5432;-57
2023/01/11 03:56:24;;;;;;;;;;;;;;;;;;4985819;28;5050;-55
2023/01/11 03:58:49;;;;;;;;;;;;;;;;;;4987854;28;3234;-61
2023/01/11 04:01:14;;;;;;;;;;;;;;;;;;4984558;28;5015;-54
2023/01/11 04:03:39;;;;;;;;;;;;;;;;;;4988486;28;5109;-52
2023/01/11 04:06:05;;;;;;;;;;;;;;;;;;4982017;28;5068;-54
2023/01/11 04:08:30;;;;;;;;;;;;;;;;;;4987570;28;5451;-53
2023/01/11 04:10:56;;;;;;;;;;;;;;;;;;4988079;28;3303;-57
2023/01/11 04:13:21;;;;;;;;;;;;;;;;;;4985563;28;4525;-54
2023/01/11 04:15:46;;;;;;;;;;;;;;;;;;4982716;28;5029;-53
2023/01/11 04:18:11;;;;;;;;;;;;;;;;;;4986240;28;5216;-53
2023/01/11 04:20:37;;;;;;;;;;;;;;;;;;4983764;28;4527;-55
2023/01/11 04:23:03;;;;;;;;;;;;;;;;;;4988832;28;3243;-57
2023/01/11 04:25:28;;;;;;;;;;;;;;;;;;4981136;28;5084;-53
2023/01/11 04:27:54;;;;;;;;;;;;;;;;;;4986638;28;5365;-54
2023/01/11 04:30:19;;;;;;;;;;;;;;;;;;4981768;28;5102;-52
2023/01/11 04:32:44;;;;;;;;;;;;;;;;;;4986911;28;5024;-53
2023/01/11 04:35:09;;;;;;;;;;;;;;;;;;4984059;28;3839;-53
2023/01/11 04:37:35;;;;;;;;;;;;;;;;;;4987489;28;5012;-56
2023/01/11 04:40:00;;;;;;;;;;;;;;;;;;4988108;28;4885;-56
2023/01/11 04:42:25;;;;;;;;;;;;;;;;;;4985760;28;5130;-59
2023/01/11 04:44:51;;;;;;;;;;;;;;;;;;4974121;28;5157;-53
2023/01/11 04:47:16;;;;;;;;;;;;;;;;;;4987458;28;3256;-55
2023/01/11 04:49:41;;;;;;;;;;;;;;;;;;4986591;28;4859;-57
2023/01/11 04:52:07;;;;;;;;;;;;;;;;;;4983650;28;5094;-61
2023/01/11 04:54:32;;;;;;;;;;;;;;;;;;4983271;28;5119;-56
2023/01/11 04:56:57;;;;;;;;;;;;;;;;;;4981047;28;4654;-53
2023/01/11 04:59:22;;;;;;;;;;;;;;;;;;4981787;28;4880;-56
2023/01/11 05:01:48;;;;;;;;;;;;;;;;;;4985108;28;3302;-53
2023/01/11 05:04:13;;;;;;;;;;;;;;;;;;4981357;28;5112;-55
2023/01/11 05:06:38;;;;;;;;;;;;;;;;;;4988416;28;5073;-54
2023/01/11 05:09:03;;;;;;;;;;;;;;;;;;4986741;28;5029;-56
2023/01/11 05:11:29;;;;;;;;;;;;;;;;;;4987418;28;4733;-57
2023/01/11 05:13:54;;;;;;;;;;;;;;;;;;4989367;28;3314;-57
2023/01/11 05:16:20;;;;;;;;;;;;;;;;;;4992468;28;4714;-57
2023/01/11 05:18:46;;;;;;;;;;;;;;;;;;4993817;28;5130;-57
2023/01/11 05:21:12;;;;;;;;;;;;;;;;;;4992693;28;4963;-56
2023/01/11 05:23:37;;;;;;;;;;;;;;;;;;4992417;28;5093;-57
2023/01/11 05:26:07;;;;;;;;;;;;;;;;;;4991616;28;3348;-54
2023/01/11 05:28:32;;;;;;;;;;;;;;;;;;4992493;28;5032;-57
2023/01/11 05:30:57;;;;;;;;;;;;;;;;;;4992786;28;4911;-56
2023/01/11 05:33:23;;;;;;;;;;;;;;;;;;4990538;28;5292;-54
2023/01/11 05:35:48;;;;;;;;;;;;;;;;;;4988328;28;5075;-56
2023/01/11 05:38:13;;;;;;;;;;;;;;;;;;4991711;28;3326;-56
2023/01/11 05:40:38;;;;;;;;;;;;;;;;;;4993243;28;5016;-53
2023/01/11 05:43:04;;;;;;;;;;;;;;;;;;4990477;28;5152;-57
2023/01/11 05:45:31;;;;;;;;;;;;;;;;;;4988804;28;5097;-57
2023/01/11 05:47:56;;;;;;;;;;;;;;;;;;4991090;28;5163;-56
2023/01/11 05:50:22;;;;;;;;;;;;;;;;;;4992360;28;4967;-62
2023/01/11 05:52:47;;;;;;;;;;;;;;;;;;4991448;28;3382;-59
2023/01/11 05:55:12;;;;;;;;;;;;;;;;;;4991192;28;5097;-54
2023/01/11 05:57:41;;;;;;;;;;;;;;;;;;4992332;28;5013;-56
2023/01/11 06:00:06;;;;;;;;;;;;;;;;;;4994366;28;5682;-55
2023/01/11 06:02:33;;;;;;;;;;;;;;;;;;4987928;28;5072;-57
2023/01/11 06:04:58;;;;;;;;;;;;;;;;;;4989041;28;3410;-59
2023/01/11 06:07:24;;;;;;;;;;;;;;;;;;4990162;28;5168;-57
2023/01/11 06:09:49;;;;;;;;;;;;;;;;;;4986083;28;5153;-60
2023/01/11 06:12:15;;;;;;;;;;;;;;;;;;4986603;28;5112;-54
2023/01/11 06:14:40;;;;;;;;;;;;;;;;;;4992586;28;5090;-58
2023/01/11 06:17:05;;;;;;;;;;;;;;;;;;4992804;28;3427;-57
2023/01/11 06:19:30;;;;;;;;;;;;;;;;;;4989844;28;5057;-57
2023/01/11 06:21:56;;;;;;;;;;;;;;;;;;4989979;28;4928;-63
2023/01/11 06:24:21;;;;;;;;;;;;;;;;;;4988595;28;4729;-59
2023/01/11 06:26:46;;;;;;;;;;;;;;;;;;4993806;28;5245;-59
2023/01/11 06:29:13;;;;;;;;;;;;;;;;;;4986764;28;3328;-57
2023/01/11 06:31:38;;;;;;;;;;;;;;;;;;4986175;28;5332;-54
2023/01/11 06:34:04;;;;;;;;;;;;;;;;;;4987913;28;4482;-59
2023/01/11 06:36:29;;;;;;;;;;;;;;;;;;4979846;28;5652;-55
2023/01/11 06:38:54;;;;;;;;;;;;;;;;;;4983068;28;5125;-56
2023/01/11 06:41:19;;;;;;;;;;;;;;;;;;4985493;28;5047;-54
2023/01/11 06:43:45;;;;;;;;;;;;;;;;;;5000444;28;3902;-60
2023/01/11 06:46:14;;;;;;;;;;;;;;;;;;4984618;28;4702;-55
2023/01/11 06:48:39;;;;;;;;;;;;;;;;;;4960312;28;4679;-57
2023/01/11 06:51:04;;;;;;;;;;;;;;;;;;4980935;28;5203;-54
2023/01/11 06:53:29;;;;;;;;;;;;;;;;;;4980479;28;5005;-63
2023/01/11 06:55:55;;;;;;;;;;;;;;;;;;4980205;28;3571;-59
2023/01/11 06:58:22;;;;;;;;;;;;;;;;;;4981842;28;5163;-59
2023/01/11 07:00:47;;;;;;;;;;;;;;;;;;4982860;28;4963;-60
2023/01/11 07:03:12;;;;;;;;;;;;;;;;;;4985735;28;5304;-60
2023/01/11 07:05:38;;;;;;;;;;;;;;;;;;4983901;28;4473;-59
2023/01/11 07:08:03;;;;;;;;;;;;;;;;;;4979799;28;3313;-60
2023/01/11 07:10:28;;;;;;;;;;;;;;;;;;4980293;28;4512;-60
2023/01/11 07:12:54;;;;;;;;;;;;;;;;;;4981662;28;4904;-60
2023/01/11 07:15:19;;;;;;;;;;;;;;;;;;4982364;28;4640;-59
2023/01/11 07:17:46;;;;;;;;;;;;;;;;;;5000185;28;5292;-59
2023/01/11 07:20:12;;;;;;;;;;;;;;;;;;4986168;28;4454;-60
2023/01/11 07:22:37;;;;;;;;;;;;;;;;;;4987650;28;5153;-59
2023/01/11 07:25:03;;;;;;;;;;;;;;;;;;4984397;28;4900;-51
2023/01/11 07:27:28;;;;;;;;;;;;;;;;;;4986547;28;4493;-53
2023/01/11 07:29:53;;;;;;;;;;;;;;;;;;4986009;28;4959;-55
2023/01/11 07:32:19;;;;;;;;;;;;;;;;;;4988939;28;2408;-56
2023/01/11 07:34:44;;;;;;;;;;;;;;;;;;5004591;28;4998;-57
2023/01/11 07:37:09;;;;;;;;;;;;;;;;;;4998081;28;4908;-58
2023/01/11 07:39:35;;;;;;;;;;;;;;;;;;5004981;28;4927;-57
2023/01/11 07:44:44;;;;;;;;;;;;;;;;;;5001208;28;5191;-57
2023/01/11 07:47:09;;;;;;;;;;;;;;;;;;5004597;28;3466;-57
2023/01/11 07:49:35;;;;;;;;;;;;;;;;;;5006745;28;4497;-57
2023/01/11 07:52:00;;;;;;;;;;;;;;;;;;5008362;28;4518;-57
2023/01/11 07:54:25;;;;;;;;;;;;;;;;;;5008843;28;5132;-57
2023/01/11 07:56:50;;;;;;;;;;;;;;;;;;5002033;28;4587;-58
2023/01/11 07:59:16;;;;;;;;;;;;;;;;;;5006249;28;1517;-56
2023/01/11 08:01:41;;;;;;;;;;;;;;;;;;5003019;28;4710;-57
2023/01/11 08:04:10;;;;;;;;;;;;;;;;;;4999572;28;5371;-60
2023/01/11 08:06:35;;;;;;;;;;;;;;;;;;5006592;28;4616;-59
2023/01/11 08:09:01;;;;;;;;;;;;;;;;;;5005264;28;5460;-58
2023/01/11 08:16:54;;;;;;;;;;;;;;;;;;4999683;28;4643;-67
2023/01/11 08:19:19;;;;;;;;;;;;;;;;;;5005285;28;5077;-64
2023/01/11 08:21:44;;;;;;;;;;;;;;;;;;5004223;28;5188;-60
2023/01/11 08:24:10;;;;;;;;;;;;;;;;;;5003225;28;4733;-59
2023/01/11 08:26:35;;;;;;;;;;;;;;;;;;5007658;28;5175;-59
2023/01/11 08:29:00;;;;;;;;;;;;;;;;;;5003484;28;3679;-58
2023/01/11 08:31:26;;;;;;;;;;;;;;;;;;5004246;28;4984;-60
2023/01/11 08:33:51;;;;;;;;;;;;;;;;;;5003287;28;4519;-60
2023/01/11 08:36:16;;;;;;;;;;;;;;;;;;5003502;28;4955;-58
2023/01/11 08:38:42;;;;;;;;;;;;;;;;;;5003435;28;5170;-60
2023/01/11 08:41:09;;;;;;;;;;;;;;;;;;5000994;28;3612;-60
2023/01/11 08:43:38;;;;;;;;;;;;;;;;;;5000629;28;4631;-60
2023/01/11 08:46:03;;;;;;;;;;;;;;;;;;5003941;28;5191;-59
2023/01/11 08:48:28;;;;;;;;;;;;;;;;;;5004524;28;5156;-59
2023/01/11 08:50:54;;;;;;;;;;;;;;;;;;5001638;28;5128;-59
2023/01/11 08:53:19;;;;;;;;;;;;;;;;;;5009459;28;4538;-55
2023/01/11 08:55:48;;;;;;;;;;;;;;;;;;5003949;28;3369;-62
2023/01/11 08:58:13;;;;;;;;;;;;;;;;;;5001433;28;5052;-58
2023/01/11 09:00:38;;;;;;;;;;;;;;;;;;4997874;28;5018;-58
2023/01/11 09:03:04;;;;;;;;;;;;;;;;;;5000149;28;5232;-59
2023/01/11 09:05:29;;;;;;;;;;;;;;;;;;5019154;28;5181;-59
2023/01/11 09:07:54;;;;;;;;;;;;;;;;;;5005171;28;3314;-59
2023/01/11 09:10:20;;;;;;;;;;;;;;;;;;5006387;28;5125;-59
2023/01/11 09:12:45;;;;;;;;;;;;;;;;;;4996127;28;4632;-61
2023/01/11 09:15:10;;;;;;;;;;;;;;;;;;5004957;28;4966;-59
2023/01/11 09:17:35;;;;;;;;;;;;;;;;;;5004576;28;4687;-59
2023/01/11 09:20:01;;;;;;;;;;;;;;;;;;5005318;28;4340;-59
2023/01/11 09:22:26;;;;;;;;;;;;;;;;;;5003636;28;5048;-59
2023/01/11 09:24:51;;;;;;;;;;;;;;;;;;5004909;28;4785;-59
2023/01/11 09:27:17;;;;;;;;;;;;;;;;;;5004865;28;4768;-60
2023/01/11 09:29:43;;;;;;;;;;;;;;;;;;5004186;28;2027;-58
2023/01/11 09:32:08;;;;;;;;;;;;;;;;;;5001639;28;4486;-62
2023/01/11 09:34:33;;;;;;;;;;;;;;;;;;5004161;28;4590;-58
2023/01/11 09:37:01;;;;;;;;;;;;;;;;;;5003434;28;5253;-58
2023/01/11 09:39:28;;;;;;;;;;;;;;;;;;5002822;28;3268;-60
2023/01/11 09:42:04;;;;;;;;;;;;;;;;;;5004963;28;4714;-62
2023/01/11 09:44:29;;;;;;;;;;;;;;;;;;5002476;28;5043;-59
2023/01/11 09:47:14;;;;;;;;;;;;;;;;;;5003490;28;5081;-59
2023/01/11 09:49:41;;;;;;;;;;;;;;;;;;5003607;28;4513;-59
2023/01/11 09:52:27;;;;;;;;;;;;;;;;;;5002700;28;4535;-59
2023/01/11 09:54:52;;;;;;;;;;;;;;;;;;5004104;28;3272;-59
2023/01/11 09:57:41;;;;;;;;;;;;;;;;;;5000357;28;4814;-60
2023/01/11 10:00:13;;;;;;;;;;;;;;;;;;4993107;28;5075;-60
2023/01/11 10:02:44;;;;;;;;;;;;;;;;;;5004740;28;5128;-62
2023/01/11 10:05:27;;;;;;;;;;;;;;;;;;5002873;28;4586;-57
2023/01/11 10:08:12;;;;;;;;;;;;;;;;;;5009715;28;5520;-57
2023/01/11 10:10:46;;;;;;;;;;;;;;;;;;5002528;28;5045;-58
2023/01/11 10:13:23;;;;;;;;;;;;;;;;;;5003859;28;1553;-57
2023/01/11 10:16:06;;;;;;;;;;;;;;;;;;4987368;28;4470;-60
2023/01/11 10:18:42;;;;;;;;;;;;;;;;;;4982467;28;5072;-59
2023/01/11 10:21:10;;;;;;;;;;;;;;;;;;4985411;28;4682;-57
2023/01/11 10:23:49;;;;;;;;;;;;;;;;;;5000679;28;5020;-59
2023/01/11 10:26:23;;;;;;;;;;;;;;;;;;5007240;28;5060;-59
2023/01/11 10:29:08;;;;;;;;;;;;;;;;;;5006537;28;5133;-57
2023/01/11 10:31:48;;;;;;;;;;;;;;;;;;5011206;28;5303;-59
2023/01/11 10:42:22;;;;;;;;;;;;;;;;;;5007432;28;5111;-58
2023/01/11 10:45:01;;;;;;;;;;;;;;;;;;5008695;28;5017;-62
2023/01/11 10:47:28;;;;;;;;;;;;;;;;;;5006056;28;5128;-58
2023/01/11 10:49:55;;;;;;;;;;;;;;;;;;5007831;28;4964;-57
2023/01/11 10:52:33;;;;;;;;;;;;;;;;;;5004074;28;5299;-57
2023/01/11 10:55:01;;;;;;;;;;;;;;;;;;5008481;28;3376;-57
2023/01/11 10:57:27;;;;;;;;;;;;;;;;;;5002734;28;5570;-58
2023/01/11 10:59:58;;;;;;;;;;;;;;;;;;5004226;28;5071;-57
2023/01/11 11:02:29;;;;;;;;;;;;;;;;;;5021820;28;5319;-58
2023/01/11 11:05:04;;;;;;;;;;;;;;;;;;5005874;28;4779;-59
2023/01/11 11:07:36;;;;;;;;;;;;;;;;;;5007784;28;4961;-60
2023/01/11 11:10:13;;;;;;;;;;;;;;;;;;5006438;28;1918;-60
2023/01/11 11:12:41;;;;;;;;;;;;;;;;;;4983871;28;5270;-58
2023/01/11 11:15:13;;;;;;;;;;;;;;;;;;5014941;28;5027;-57
2023/01/11 11:17:39;;;;;;;;;;;;;;;;;;5007710;28;4938;-57
2023/01/11 11:20:12;;;;;;;;;;;;;;;;;;5005495;28;5108;-57
2023/01/11 11:22:37;;;;;;;;;;;;;;;;;;5006433;28;4947;-58
2023/01/11 11:25:26;;;;;;;;;;;;;;;;;;5006289;28;3451;-58
2023/01/11 11:27:54;;;;;;;;;;;;;;;;;;4990832;28;4532;-64
2023/01/11 11:30:37;;;;;;;;;;;;;;;;;;5007448;28;5031;-57
2023/01/11 11:33:06;;;;;;;;;;;;;;;;;;5005246;28;5028;-58
2023/01/11 11:35:36;;;;;;;;;;;;;;;;;;5006003;28;4999;-61
2023/01/11 11:38:01;;;;;;;;;;;;;;;;;;4996228;28;5072;-57
2023/01/11 11:40:28;;;;;;;;;;;;;;;;;;5008045;28;4582;-59
2023/01/11 11:43:12;;;;;;;;;;;;;;;;;;5005088;28;3396;-57
2023/01/11 11:45:48;;;;;;;;;;;;;;;;;;5000198;28;4534;-60
2023/01/11 11:48:13;;;;;;;;;;;;;;;;;;5006164;28;5187;-57
2023/01/11 11:50:39;;;;;;;;;;;;;;;;;;5003795;28;5156;-57
2023/01/11 11:53:04;;;;;;;;;;;;;;;;;;5003945;28;5144;-57
2023/01/11 11:55:30;;;;;;;;;;;;;;;;;;5001798;28;4652;-61
2023/01/11 11:57:56;;;;;;;;;;;;;;;;;;5002851;28;3514;-60
2023/01/11 12:00:25;;;;;;;;;;;;;;;;;;4991110;28;4496;-58
2023/01/11 12:02:55;;;;;;;;;;;;;;;;;;5002311;28;5122;-57
2023/01/11 12:05:20;;;;;;;;;;;;;;;;;;5000890;28;4718;-58
2023/01/11 12:07:46;;;;;;;;;;;;;;;;;;4999245;28;5211;-58
2023/01/11 12:10:12;;;;;;;;;;;;;;;;;;5006688;28;3268;-59
2023/01/11 12:12:51;;;;;;;;;;;;;;;;;;4999657;28;4626;-59
2023/01/11 12:15:20;;;;;;;;;;;;;;;;;;5004924;28;4701;-58
2023/01/11 12:17:46;;;;;;;;;;;;;;;;;;5007106;28;5493;-56
2023/01/11 12:20:26;;;;;;;;;;;;;;;;;;5000155;28;5137;-59
2023/01/11 12:23:07;;;;;;;;;;;;;;;;;;5027978;28;5162;-60
2023/01/11 12:25:32;;;;;;;;;;;;;;;;;;5007079;28;5556;-56
2023/01/11 12:28:00;;;;;;;;;;;;;;;;;;5008234;28;1102;-58
2023/01/11 12:30:29;;;;;;;;;;;;;;;;;;4999556;28;5108;-57
2023/01/11 12:32:54;;;;;;;;;;;;;;;;;;5010049;28;5343;-56
2023/01/11 12:35:25;;;;;;;;;;;;;;;;;;5007850;28;5030;-57
2023/01/11 12:37:54;;;;;;;;;;;;;;;;;;5007290;28;5124;-56
2023/01/11 12:40:38;;;;;;;;;;;;;;;;;;5003347;28;5147;-56
2023/01/11 12:43:06;;;;;;;;;;;;;;;;;;5006805;28;3427;-59
2023/01/11 12:45:32;;;;;;;;;;;;;;;;;;5007041;28;4416;-60
2023/01/11 12:48:00;;;;;;;;;;;;;;;;;;5006350;28;4998;-61
2023/01/11 12:50:25;;;;;;;;;;;;;;;;;;5004817;28;5369;-58
2023/01/11 12:52:51;;;;;;;;;;;;;;;;;;5004946;28;5212;-58
2023/01/11 12:55:19;;;;;;;;;;;;;;;;;;5002289;28;5071;-59
2023/01/11 12:58:06;;;;;;;;;;;;;;;;;;5006456;28;3382;-58
2023/01/11 13:00:54;;;;;;;;;;;;;;;;;;5004939;28;5256;-59
2023/01/11 13:03:22;;;;;;;;;;;;;;;;;;5005861;28;5086;-59
2023/01/11 13:05:47;;;;;;;;;;;;;;;;;;5000439;28;5049;-59
2023/01/11 13:08:12;;;;;;;;;;;;;;;;;;5004590;28;4887;-60
2023/01/11 13:10:41;;;;;;;;;;;;;;;;;;5005458;28;5114;-58
2023/01/11 13:13:07;;;;;;;;;;;;;;;;;;4994612;28;3490;-57
2023/01/11 13:15:47;;;;;;;;;;;;;;;;;;5005724;28;4511;-57
2023/01/11 13:18:17;;;;;;;;;;;;;;;;;;5002611;28;5651;-59
2023/01/11 13:20:52;;;;;;;;;;;;;;;;;;5010518;28;4990;-59
2023/01/11 13:23:17;;;;;;;;;;;;;;;;;;4987410;28;4909;-59
2023/01/11 13:25:43;;;;;;;;;;;;;;;;;;4987113;28;5065;-60
2023/01/11 13:28:20;;;;;;;;;;;;;;;;;;4986775;28;3353;-57
2023/01/11 13:30:45;;;;;;;;;;;;;;;;;;5003370;28;4930;-57
2023/01/11 13:33:12;;;;;;;;;;;;;;;;;;4989538;28;5236;-58
2023/01/11 13:35:56;;;;;;;;;;;;;;;;;;4990820;28;5026;-57
2023/01/11 13:38:34;;;;;;;;;;;;;;;;;;4981466;28;5076;-61
2023/01/11 13:41:11;;;;;;;;;;;;;;;;;;4994378;28;5012;-57
2023/01/11 13:43:36;;;;;;;;;;;;;;;;;;4998152;28;5199;-57
2023/01/11 13:46:05;;;;;;;;;;;;;;;;;;4991477;28;1482;-61
2023/01/11 13:48:32;;;;;;;;;;;;;;;;;;5008830;28;4925;-59
2023/01/11 13:51:07;;;;;;;;;;;;;;;;;;5007928;28;4502;-58
2023/01/11 13:53:52;;;;;;;;;;;;;;;;;;5008488;28;4622;-57
2023/01/11 13:56:36;;;;;;;;;;;;;;;;;;5003894;28;4864;-58
2023/01/11 13:59:07;;;;;;;;;;;;;;;;;;4989675;28;5252;-58
2023/01/11 14:01:41;;;;;;;;;;;;;;;;;;4994165;28;5049;-58
2023/01/11 14:04:14;;;;;;;;;;;;;;;;;;5007776;28;1099;-57
2023/01/11 14:06:44;;;;;;;;;;;;;;;;;;4998599;28;5082;-55
2023/01/11 14:09:28;;;;;;;;;;;;;;;;;;5020530;28;4864;-59
2023/01/11 14:11:53;;;;;;;;;;;;;;;;;;4992364;28;4976;-57
2023/01/11 14:14:25;;;;;;;;;;;;;;;;;;4990525;28;4702;-57
2023/01/11 14:16:53;;;;;;;;;;;;;;;;;;4985332;28;5084;-55
2023/01/11 14:19:23;;;;;;;;;;;;;;;;;;4981748;28;4847;-58
2023/01/11 14:21:54;;;;;;;;;;;;;;;;;;4991562;28;1258;-59
2023/01/11 14:24:19;;;;;;;;;;;;;;;;;;4988012;28;5050;-59
2023/01/11 14:27:03;;;;;;;;;;;;;;;;;;4983891;28;4833;-57
2023/01/11 14:29:51;;;;;;;;;;;;;;;;;;4985327;28;5056;-57
2023/01/11 14:32:17;;;;;;;;;;;;;;;;;;4983943;28;5154;-58
2023/01/11 14:34:48;;;;;;;;;;;;;;;;;;4989607;28;5120;-57
2023/01/11 14:37:32;;;;;;;;;;;;;;;;;;4988464;28;5261;-55
2023/01/11 14:40:12;;;;;;;;;;;;;;;;;;4987423;28;3450;-57
2023/01/11 14:42:38;;;;;;;;;;;;;;;;;;4983820;28;4511;-59
2023/01/11 14:45:18;;;;;;;;;;;;;;;;;;4989419;28;5091;-60
2023/01/11 14:47:53;;;;;;;;;;;;;;;;;;4976340;28;4769;-58
2023/01/11 14:50:18;;;;;;;;;;;;;;;;;;4985541;28;5116;-57
2023/01/11 14:52:43;;;;;;;;;;;;;;;;;;4990419;28;5129;-56
2023/01/11 14:55:22;;;;;;;;;;;;;;;;;;4989165;28;1390;-59
2023/01/11 14:57:54;;;;;;;;;;;;;;;;;;5002398;28;5217;-57
2023/01/11 15:00:19;;;;;;;;;;;;;;;;;;4996373;28;4981;-58
2023/01/11 15:03:11;;;;;;;;;;;;;;;;;;5005912;28;4547;-58
2023/01/11 15:05:36;;;;;;;;;;;;;;;;;;4971290;28;4926;-57
2023/01/11 15:08:28;;;;;;;;;;;;;;;;;;5006997;28;4672;-60
2023/01/11 15:10:57;;;;;;;;;;;;;;;;;;4984991;28;4514;-57
2023/01/11 15:13:23;;;;;;;;;;;;;;;;;;5006103;28;4570;-57
2023/01/11 15:18:33;;;;;;;;;;;;;;;;;;5002614;28;4649;-58
2023/01/11 15:21:02;;;;;;;;;;;;;;;;;;5005832;28;5055;-59
2023/01/11 15:23:28;;;;;;;;;;;;;;;;;;5001313;28;4736;-59
2023/01/11 15:26:00;;;;;;;;;;;;;;;;;;5009308;28;5002;-57
2023/01/11 15:28:31;;;;;;;;;;;;;;;;;;5005800;28;5083;-59
2023/01/11 15:30:57;;;;;;;;;;;;;;;;;;5010030;28;1989;-57
2023/01/11 15:33:24;;;;;;;;;;;;;;;;;;5007623;28;4721;-57
2023/01/11 15:35:55;;;;;;;;;;;;;;;;;;5008244;28;5072;-57
2023/01/11 15:38:22;;;;;;;;;;;;;;;;;;5004691;28;5133;-59
2023/01/11 15:40:49;;;;;;;;;;;;;;;;;;5006939;28;4556;-60
2023/01/11 15:43:20;;;;;;;;;;;;;;;;;;5002313;28;5104;-55
2023/01/11 15:48:39;;;;;;;;;;;;;;;;;;5006756;28;4984;-61
2023/01/11 15:51:11;;;;;;;;;;;;;;;;;;5006685;28;4547;-63
2023/01/11 15:53:42;;;;;;;;;;;;;;;;;;5005438;28;4644;-57
2023/01/11 15:56:20;;;;;;;;;;;;;;;;;;5004581;28;4723;-57
2023/01/11 15:58:57;;;;;;;;;;;;;;;;;;5009048;28;5223;-63
2023/01/11 16:01:24;;;;;;;;;;;;;;;;;;5009358;28;5112;-57
2023/01/11 16:04:04;;;;;;;;;;;;;;;;;;5006166;28;1250;-61
2023/01/11 16:06:41;;;;;;;;;;;;;;;;;;5005938;28;5042;-60
2023/01/11 16:09:13;;;;;;;;;;;;;;;;;;4993440;28;4976;-59
2023/01/11 16:11:43;;;;;;;;;;;;;;;;;;4984849;28;4436;-62
2023/01/11 16:14:27;;;;;;;;;;;;;;;;;;4983486;28;4608;-62
2023/01/11 16:16:54;;;;;;;;;;;;;;;;;;4982343;28;4971;-60
2023/01/11 16:19:20;;;;;;;;;;;;;;;;;;4996979;28;5090;-62
2023/01/11 16:21:54;;;;;;;;;;;;;;;;;;4997861;28;3286;-66
2023/01/11 16:24:20;;;;;;;;;;;;;;;;;;4986696;28;5202;-61
2023/01/11 16:27:03;;;;;;;;;;;;;;;;;;4986427;28;5156;-57
2023/01/11 16:29:29;;;;;;;;;;;;;;;;;;5000434;28;5489;-61
2023/01/11 16:31:58;;;;;;;;;;;;;;;;;;4999903;28;5522;-58
2023/01/11 16:34:23;;;;;;;;;;;;;;;;;;4982143;28;5279;-58
2023/01/11 16:36:49;;;;;;;;;;;;;;;;;;5006243;28;3356;-58
2023/01/11 16:39:34;;;;;;;;;;;;;;;;;;5008931;28;5155;-60
2023/01/11 16:42:02;;;;;;;;;;;;;;;;;;5001546;28;5148;-58
2023/01/11 16:44:27;;;;;;;;;;;;;;;;;;5003061;28;5195;-58
2023/01/11 16:47:10;;;;;;;;;;;;;;;;;;5005027;28;5111;-61
2023/01/11 16:49:35;;;;;;;;;;;;;;;;;;4996096;28;5099;-58
2023/01/11 16:52:01;;;;;;;;;;;;;;;;;;5006446;28;3230;-60
2023/01/11 16:54:27;;;;;;;;;;;;;;;;;;5006285;28;5104;-59
2023/01/11 16:56:52;;;;;;;;;;;;;;;;;;4995397;28;5175;-57
2023/01/11 16:59:26;;;;;;;;;;;;;;;;;;5007746;28;5275;-59
2023/01/11 17:01:52;;;;;;;;;;;;;;;;;;5005089;28;5164;-58
2023/01/11 17:04:26;;;;;;;;;;;;;;;;;;5004961;28;5206;-60
2023/01/11 17:06:51;;;;;;;;;;;;;;;;;;5003564;28;3549;-63
2023/01/11 17:09:20;;;;;;;;;;;;;;;;;;4980039;28;5143;-60
2023/01/11 17:11:48;;;;;;;;;;;;;;;;;;4979830;28;4549;-71
2023/01/11 17:14:23;;;;;;;;;;;;;;;;;;4984069;28;5090;-60
2023/01/11 17:16:49;;;;;;;;;;;;;;;;;;4996449;28;5153;-60
2023/01/11 17:19:15;;;;;;;;;;;;;;;;;;4980519;28;5250;-58
2023/01/11 17:21:50;;;;;;;;;;;;;;;;;;5004386;28;3237;-57
2023/01/11 17:24:16;;;;;;;;;;;;;;;;;;4991900;28;4708;-58
2023/01/11 17:26:43;;;;;;;;;;;;;;;;;;4982027;28;5044;-62
2023/01/11 17:29:08;;;;;;;;;;;;;;;;;;5002860;28;5223;-64
2023/01/11 17:31:34;;;;;;;;;;;;;;;;;;4997601;28;5163;-58
2023/01/11 17:34:12;;;;;;;;;;;;;;;;;;5005949;28;3131;-58
2023/01/11 17:36:37;;;;;;;;;;;;;;;;;;5006659;28;4939;-57
2023/01/11 17:39:03;;;;;;;;;;;;;;;;;;5005454;28;5119;-58
2023/01/11 17:47:04;;;;;;;;;;;;;;;;;;5003021;28;5193;-58
2023/01/11 17:49:29;;;;;;;;;;;;;;;;;;5003934;28;5315;-60
2023/01/11 17:51:54;;;;;;;;;;;;;;;;;;5002102;28;3392;-58
2023/01/11 17:54:20;;;;;;;;;;;;;;;;;;4989158;28;4932;-60
2023/01/11 17:56:48;;;;;;;;;;;;;;;;;;4980924;28;5131;-58
2023/01/11 17:59:19;;;;;;;;;;;;;;;;;;4986382;28;5075;-60